createdAt,value
2017-09-08T00:00:06.886Z,78.30
2017-09-08T00:02:33.158Z,78.10
2017-09-08T00:04:59.446Z,78.00
2017-09-08T00:07:25.732Z,78.20
2017-09-08T00:09:52.009Z,78.40
2017-09-08T00:12:18.265Z,78.50
2017-09-08T00:14:44.921Z,78.60
2017-09-08T00:17:11.197Z,78.60
2017-09-08T00:19:37.490Z,79.10
2017-09-08T00:22:03.767Z,79.50
2017-09-08T00:24:30.064Z,79.20
2017-09-08T00:26:56.364Z,78.80
2017-09-08T00:29:22.652Z,78.40
2017-09-08T00:31:48.956Z,78.40
2017-09-08T00:34:15.264Z,78.10
2017-09-08T00:36:41.560Z,78.20
2017-09-08T00:39:07.860Z,78.50
2017-09-08T00:41:34.137Z,78.40
2017-09-08T00:44:00.447Z,78.70
2017-09-08T00:46:26.740Z,78.30
2017-09-08T00:48:53.029Z,77.90
2017-09-08T00:51:19.357Z,78.20
2017-09-08T00:53:45.669Z,78.60
2017-09-08T00:56:11.958Z,78.80
2017-09-08T00:58:38.267Z,78.50
2017-09-08T01:01:04.537Z,78.10
2017-09-08T01:03:30.826Z,77.80
2017-09-08T01:05:57.126Z,77.70
2017-09-08T01:08:23.443Z,77.70
2017-09-08T01:10:50.109Z,78.50
2017-09-08T01:13:16.422Z,78.50
2017-09-08T01:15:42.729Z,78.70
2017-09-08T01:18:10.010Z,78.40
2017-09-08T01:20:36.297Z,78.50
2017-09-08T01:23:02.590Z,78.40
2017-09-08T01:25:28.873Z,78.30
2017-09-08T01:27:55.142Z,78.10
2017-09-08T01:30:21.432Z,78.10
2017-09-08T01:32:47.702Z,78.30
2017-09-08T01:35:13.994Z,78.30
2017-09-08T01:37:40.280Z,77.90
2017-09-08T01:40:06.557Z,77.90
2017-09-08T01:42:32.861Z,78.00
2017-09-08T01:44:59.557Z,78.30
2017-09-08T01:47:25.850Z,79.10
2017-09-08T01:49:52.116Z,79.00
2017-09-08T01:52:18.417Z,78.70
2017-09-08T01:54:44.666Z,78.20
2017-09-08T01:57:10.953Z,78.30
2017-09-08T01:59:37.194Z,78.20
2017-09-08T02:02:03.498Z,78.30
2017-09-08T02:04:29.768Z,78.70
2017-09-08T02:06:56.077Z,78.40
2017-09-08T02:09:22.363Z,78.70
2017-09-08T02:11:48.640Z,78.90
2017-09-08T02:14:14.938Z,78.70
2017-09-08T02:16:41.205Z,78.20
2017-09-08T02:19:07.498Z,78.00
2017-09-08T02:21:39.971Z,77.90
2017-09-08T02:24:06.271Z,77.80
2017-09-08T02:26:32.553Z,78.30
2017-09-08T02:28:58.837Z,78.40
2017-09-08T02:31:25.101Z,78.10
2017-09-08T02:33:51.398Z,78.00
2017-09-08T02:36:17.669Z,77.70
2017-09-08T02:38:43.937Z,77.70
2017-09-08T02:41:10.265Z,78.00
2017-09-08T02:43:36.541Z,79.00
2017-09-08T02:46:02.838Z,78.70
2017-09-08T02:48:29.093Z,78.40
2017-09-08T02:50:55.378Z,78.30
2017-09-08T02:53:21.674Z,78.60
2017-09-08T02:55:47.976Z,78.40
2017-09-08T02:58:14.280Z,78.60
2017-09-08T03:00:40.574Z,78.80
2017-09-08T03:03:06.881Z,78.60
2017-09-08T03:05:33.125Z,79.20
2017-09-08T03:07:59.409Z,79.10
2017-09-08T03:10:25.686Z,79.30
2017-09-08T03:12:51.978Z,79.20
2017-09-08T03:15:18.221Z,79.50
2017-09-08T03:17:44.517Z,80.20
2017-09-08T03:20:10.813Z,80.30
2017-09-08T03:22:37.469Z,80.20
2017-09-08T03:25:03.733Z,80.20
2017-09-08T03:27:30.009Z,80.20
2017-09-08T03:29:56.294Z,80.00
2017-09-08T03:32:22.545Z,79.80
2017-09-08T03:34:48.826Z,79.70
2017-09-08T03:37:15.113Z,79.90
2017-09-08T03:39:41.421Z,79.80
2017-09-08T03:42:07.693Z,79.70
2017-09-08T03:44:33.993Z,79.60
2017-09-08T03:47:00.261Z,79.40
2017-09-08T03:49:26.549Z,79.90
2017-09-08T03:51:52.834Z,81.00
2017-09-08T03:54:19.121Z,81.10
2017-09-08T03:56:45.426Z,82.30
2017-09-08T03:59:11.713Z,81.60
2017-09-08T04:01:37.990Z,81.30
2017-09-08T04:04:04.260Z,82.70
2017-09-08T04:06:30.582Z,82.50
2017-09-08T04:08:56.861Z,82.60
2017-09-08T04:11:23.154Z,83.60
2017-09-08T04:13:49.497Z,83.60
2017-09-08T04:16:15.777Z,84.70
2017-09-08T04:18:42.097Z,85.30
2017-09-08T04:21:08.354Z,84.10
2017-09-08T04:23:34.632Z,84.10
2017-09-08T04:26:00.913Z,83.40
2017-09-08T04:28:27.213Z,83.00
2017-09-08T04:30:53.489Z,83.10
2017-09-08T04:33:19.769Z,83.00
2017-09-08T04:35:46.064Z,83.90
2017-09-08T04:38:12.362Z,85.30
2017-09-08T04:40:38.703Z,85.70
2017-09-08T04:43:05.362Z,86.50
2017-09-08T04:45:31.677Z,86.50
2017-09-08T04:47:57.963Z,86.10
2017-09-08T04:50:24.255Z,86.30
2017-09-08T04:52:50.516Z,86.10
2017-09-08T04:55:16.797Z,85.90
2017-09-08T04:57:43.080Z,84.90
2017-09-08T05:00:09.367Z,85.00
2017-09-08T05:02:35.657Z,85.30
2017-09-08T05:05:02.330Z,85.70
2017-09-08T05:07:28.638Z,85.80
2017-09-08T05:09:54.906Z,85.30
2017-09-08T05:12:21.196Z,84.60
2017-09-08T05:14:47.500Z,85.10
2017-09-08T05:17:13.795Z,85.70
2017-09-08T05:19:40.059Z,86.00
2017-09-08T05:22:06.340Z,86.20
2017-09-08T05:24:32.616Z,85.90
2017-09-08T05:26:58.905Z,86.00
2017-09-08T05:29:25.173Z,85.30
2017-09-08T05:31:51.453Z,85.20
2017-09-08T05:34:17.727Z,84.90
2017-09-08T05:36:44.001Z,85.50
2017-09-08T05:39:10.299Z,84.70
2017-09-08T05:41:36.569Z,84.70
2017-09-08T05:44:02.845Z,84.70
2017-09-08T05:46:29.097Z,83.70
2017-09-08T05:48:55.399Z,83.90
2017-09-08T05:51:21.667Z,83.80
2017-09-08T05:53:47.957Z,83.40
2017-09-08T05:56:14.228Z,83.80
2017-09-08T05:58:40.497Z,83.10
2017-09-08T06:01:06.789Z,83.10
2017-09-08T06:03:33.056Z,83.00
2017-09-08T06:05:59.357Z,82.90
2017-09-08T06:08:25.634Z,83.00
2017-09-08T06:10:51.938Z,82.80
2017-09-08T06:13:18.221Z,82.10
2017-09-08T06:15:44.505Z,82.20
2017-09-08T06:18:10.751Z,81.70
2017-09-08T06:20:37.069Z,82.00
2017-09-08T06:23:03.312Z,81.30
2017-09-08T06:25:29.585Z,81.30
2017-09-08T06:27:55.862Z,81.30
2017-09-08T06:30:22.127Z,80.90
2017-09-08T06:32:48.418Z,80.90
2017-09-08T06:35:14.701Z,81.10
2017-09-08T06:37:40.985Z,81.70
2017-09-08T06:40:07.276Z,82.10
2017-09-08T06:42:33.576Z,82.20
2017-09-08T06:44:59.829Z,80.30
2017-09-08T06:47:26.122Z,81.00
2017-09-08T06:49:52.741Z,80.10
2017-09-08T06:52:19.034Z,80.10
2017-09-08T06:54:45.337Z,81.00
2017-09-08T06:57:11.641Z,80.50
2017-09-08T06:59:37.929Z,80.20
2017-09-08T07:02:04.199Z,80.40
2017-09-08T07:04:30.506Z,80.00
2017-09-08T07:06:56.817Z,80.70
2017-09-08T07:09:23.160Z,80.00
2017-09-08T07:11:49.451Z,79.50
2017-09-08T07:14:15.715Z,79.20
2017-09-08T07:16:42.019Z,78.40
2017-09-08T07:19:08.317Z,79.20
2017-09-08T07:21:34.610Z,79.60
2017-09-08T07:24:00.913Z,79.90
2017-09-08T07:26:27.197Z,79.90
2017-09-08T07:28:53.468Z,79.70
2017-09-08T07:31:19.746Z,78.40
2017-09-08T07:33:46.053Z,78.80
2017-09-08T07:36:12.335Z,79.20
2017-09-08T07:38:38.632Z,79.60
2017-09-08T07:41:04.918Z,79.20
2017-09-08T07:43:31.214Z,79.30
2017-09-08T07:45:57.855Z,78.20
2017-09-08T07:48:24.512Z,79.10
2017-09-08T07:50:50.776Z,79.10
2017-09-08T07:53:17.079Z,77.50
2017-09-08T07:55:43.402Z,77.10
2017-09-08T07:58:09.687Z,77.50
2017-09-08T08:00:35.973Z,76.10
2017-09-08T08:03:02.270Z,75.60
2017-09-08T08:05:28.825Z,74.30
2017-09-08T08:07:55.101Z,73.70
2017-09-08T08:10:21.416Z,72.80
2017-09-08T08:12:47.741Z,74.00
2017-09-08T08:15:14.027Z,74.30
2017-09-08T08:17:40.329Z,73.60
2017-09-08T08:20:06.608Z,72.50
2017-09-08T08:22:32.965Z,72.90
2017-09-08T08:24:59.292Z,71.30
2017-09-08T08:27:25.606Z,72.20
2017-09-08T08:29:51.880Z,71.50
2017-09-08T08:32:18.186Z,71.50
2017-09-08T08:34:44.503Z,71.80
2017-09-08T08:37:10.798Z,71.40
2017-09-08T08:39:37.089Z,72.80
2017-09-08T08:42:03.354Z,71.30
2017-09-08T08:44:29.652Z,70.20
2017-09-08T08:46:55.942Z,70.40
2017-09-08T08:49:22.229Z,70.10
2017-09-08T08:51:48.525Z,70.80
2017-09-08T08:54:14.854Z,69.60
2017-09-08T08:56:41.157Z,69.50
2017-09-08T08:59:07.449Z,68.50
2017-09-08T09:01:33.737Z,68.60
2017-09-08T09:03:59.997Z,67.40
2017-09-08T09:06:26.305Z,66.70
2017-09-08T09:08:52.578Z,65.70
2017-09-08T09:11:19.548Z,66.40
2017-09-08T09:13:45.841Z,66.40
2017-09-08T09:16:12.112Z,65.10
2017-09-08T09:18:38.417Z,64.50
2017-09-08T09:21:04.681Z,64.80
2017-09-08T09:23:30.965Z,64.50
2017-09-08T09:25:57.233Z,64.70
2017-09-08T09:28:23.561Z,64.40
2017-09-08T09:30:49.838Z,63.90
2017-09-08T09:33:16.502Z,62.00
2017-09-08T09:35:42.802Z,62.00
2017-09-08T09:38:09.445Z,61.90
2017-09-08T09:40:35.753Z,61.90
2017-09-08T09:43:02.049Z,62.20
2017-09-08T09:45:28.381Z,60.90
2017-09-08T09:47:54.692Z,59.40
2017-09-08T09:50:20.968Z,58.10
2017-09-08T09:52:47.311Z,58.50
2017-09-08T09:55:13.570Z,58.70
2017-09-08T09:57:39.880Z,55.90
2017-09-08T10:00:06.526Z,57.30
2017-09-08T10:02:32.810Z,57.30
2017-09-08T10:04:59.102Z,55.60
2017-09-08T10:07:25.378Z,53.60
2017-09-08T10:09:51.685Z,53.10
2017-09-08T10:12:17.985Z,52.30
2017-09-08T10:14:44.276Z,53.10
2017-09-08T10:17:10.534Z,52.90
2017-09-08T10:19:36.834Z,53.10
2017-09-08T10:22:03.114Z,54.50
2017-09-08T10:24:29.416Z,50.60
2017-09-08T10:26:56.037Z,47.20
2017-09-08T10:29:22.327Z,47.20
2017-09-08T10:31:48.621Z,48.00
2017-09-08T10:34:14.920Z,47.80
2017-09-08T10:36:41.198Z,49.20
2017-09-08T10:39:07.502Z,49.70
2017-09-08T10:41:33.818Z,50.00
2017-09-08T10:44:00.118Z,50.40
2017-09-08T10:46:26.401Z,49.20
2017-09-08T10:48:52.685Z,49.80
2017-09-08T10:51:18.994Z,49.90
2017-09-08T10:53:45.285Z,51.40
2017-09-08T10:56:11.578Z,51.10
2017-09-08T10:58:37.841Z,51.20
2017-09-08T11:01:04.142Z,49.60
2017-09-08T11:03:30.439Z,48.40
2017-09-08T11:05:56.736Z,45.30
2017-09-08T11:08:23.016Z,44.00
2017-09-08T11:10:49.269Z,45.70
2017-09-08T11:13:15.570Z,44.20
2017-09-08T11:15:41.848Z,41.00
2017-09-08T11:18:08.146Z,40.40
2017-09-08T11:20:34.421Z,43.00
2017-09-08T11:23:00.773Z,45.20
2017-09-08T11:25:27.085Z,45.70
2017-09-08T11:27:53.362Z,48.40
2017-09-08T11:30:19.665Z,47.70
2017-09-08T11:32:51.966Z,48.60
2017-09-08T11:35:24.334Z,49.00
2017-09-08T11:37:50.608Z,45.10
2017-09-08T11:40:16.897Z,44.20
2017-09-08T11:42:43.189Z,45.50
2017-09-08T11:45:09.469Z,46.10
2017-09-08T11:47:36.159Z,46.10
2017-09-08T11:50:02.454Z,46.10
2017-09-08T11:52:28.771Z,44.90
2017-09-08T11:54:55.053Z,42.50
2017-09-08T11:57:21.362Z,41.30
2017-09-08T11:59:47.650Z,38.00
2017-09-08T12:02:13.953Z,37.40
2017-09-08T12:04:40.267Z,35.80
2017-09-08T12:07:06.545Z,36.40
2017-09-08T12:09:32.841Z,38.90
2017-09-08T12:11:59.147Z,37.10
2017-09-08T12:14:25.430Z,36.30
2017-09-08T12:16:52.526Z,36.40
2017-09-08T12:19:18.805Z,36.00
2017-09-08T12:21:45.099Z,36.30
2017-09-08T12:24:11.371Z,34.90
2017-09-08T12:26:37.681Z,31.00
2017-09-08T12:29:03.976Z,34.00
2017-09-08T12:31:30.269Z,35.40
2017-09-08T12:33:56.550Z,37.80
2017-09-08T12:36:22.815Z,39.00
2017-09-08T12:38:49.125Z,39.10
2017-09-08T12:41:15.404Z,36.10
2017-09-08T12:43:41.691Z,33.10
2017-09-08T12:46:07.964Z,31.40
2017-09-08T12:48:34.289Z,30.30
2017-09-08T12:51:00.607Z,29.20
2017-09-08T12:53:26.877Z,29.10
2017-09-08T12:55:53.203Z,29.00
2017-09-08T12:58:19.492Z,27.60
2017-09-08T13:00:45.813Z,27.40
2017-09-08T13:03:12.107Z,26.40
2017-09-08T13:05:38.395Z,26.50
2017-09-08T13:08:04.679Z,25.40
2017-09-08T13:10:30.945Z,25.60
2017-09-08T13:12:57.254Z,24.30
2017-09-08T13:15:23.554Z,24.50
2017-09-08T13:17:49.862Z,27.60
2017-09-08T13:20:16.155Z,27.30
2017-09-08T13:22:42.425Z,28.00
2017-09-08T13:25:08.765Z,28.00
2017-09-08T13:27:35.040Z,28.00
2017-09-08T13:30:01.321Z,28.10
2017-09-08T13:32:27.625Z,27.20
2017-09-08T13:34:53.929Z,26.60
2017-09-08T13:37:20.218Z,27.40
2017-09-08T13:39:46.526Z,29.20
2017-09-08T13:42:12.837Z,31.20
2017-09-08T13:44:39.110Z,32.40
2017-09-08T13:47:05.449Z,31.00
2017-09-08T13:49:31.762Z,30.30
2017-09-08T13:51:58.033Z,30.20
2017-09-08T13:54:24.380Z,29.50
2017-09-08T13:56:51.027Z,29.50
2017-09-08T13:59:17.307Z,29.50
2017-09-08T14:01:43.570Z,29.20
2017-09-08T14:04:09.881Z,28.10
2017-09-08T14:06:36.207Z,28.10
2017-09-08T14:09:02.558Z,28.90
2017-09-08T14:11:28.857Z,31.30
2017-09-08T14:13:55.113Z,32.30
2017-09-08T14:16:21.764Z,35.00
2017-09-08T14:18:48.041Z,34.90
2017-09-08T14:21:15.237Z,35.70
2017-09-08T14:23:41.911Z,34.70
2017-09-08T14:26:08.198Z,34.70
2017-09-08T14:28:34.501Z,35.40
2017-09-08T14:31:00.762Z,33.40
2017-09-08T14:33:27.104Z,31.00
2017-09-08T14:35:53.399Z,31.40
2017-09-08T14:38:19.697Z,30.40
2017-09-08T14:40:45.994Z,30.70
2017-09-08T14:43:12.314Z,30.90
2017-09-08T14:45:38.606Z,30.50
2017-09-08T14:48:04.880Z,29.50
2017-09-08T14:50:31.533Z,31.60
2017-09-08T14:52:58.432Z,31.60
2017-09-08T14:55:25.649Z,31.80
2017-09-08T14:57:51.913Z,29.70
2017-09-08T15:00:18.218Z,30.60
2017-09-08T15:02:44.480Z,30.50
2017-09-08T15:05:10.801Z,29.80
2017-09-08T15:07:37.097Z,30.20
2017-09-08T15:10:03.426Z,31.00
2017-09-08T15:12:29.737Z,32.50
2017-09-08T15:14:55.977Z,33.50
2017-09-08T15:17:22.270Z,36.30
2017-09-08T15:19:48.581Z,35.30
2017-09-08T15:22:15.277Z,34.20
2017-09-08T15:24:41.548Z,34.70
2017-09-08T15:27:07.818Z,33.90
2017-09-08T15:29:34.126Z,34.80
2017-09-08T15:32:00.421Z,34.30
2017-09-08T15:34:26.822Z,36.10
2017-09-08T15:36:53.097Z,36.90
2017-09-08T15:39:19.398Z,36.00
2017-09-08T15:41:45.655Z,38.30
2017-09-08T15:44:11.974Z,39.50
2017-09-08T15:46:38.830Z,39.50
2017-09-08T15:49:05.109Z,41.30
2017-09-08T15:51:31.764Z,43.20
2017-09-08T15:53:58.033Z,44.20
2017-09-08T15:56:24.324Z,45.00
2017-09-08T15:58:50.596Z,45.80
2017-09-08T16:01:17.252Z,46.80
2017-09-08T16:03:43.966Z,45.00
2017-09-08T16:06:10.257Z,45.00
2017-09-08T16:08:36.537Z,45.80
2017-09-08T16:11:02.920Z,48.00
2017-09-08T16:13:29.222Z,46.40
2017-09-08T16:15:55.502Z,48.90
2017-09-08T16:18:21.810Z,47.00
2017-09-08T16:20:48.101Z,47.70
2017-09-08T16:23:14.793Z,48.00
2017-09-08T16:25:41.074Z,48.00
2017-09-08T16:28:07.373Z,49.00
2017-09-08T16:30:33.649Z,49.60
2017-09-08T16:32:59.958Z,49.30
2017-09-08T16:35:26.270Z,49.70
2017-09-08T16:37:53.717Z,50.70
2017-09-08T16:40:20.006Z,50.70
2017-09-08T16:42:46.303Z,51.30
2017-09-08T16:45:12.620Z,51.10
2017-09-08T16:47:39.262Z,51.10
2017-09-08T16:50:05.930Z,51.30
2017-09-08T16:52:32.290Z,51.30
2017-09-08T16:54:58.609Z,51.60
2017-09-08T16:57:24.919Z,51.70
2017-09-08T16:59:51.233Z,51.80
2017-09-08T17:02:17.508Z,51.80
2017-09-08T17:04:43.809Z,52.20
2017-09-08T17:07:10.109Z,52.90
2017-09-08T17:09:36.455Z,54.30
2017-09-08T17:12:02.755Z,54.30
2017-09-08T17:14:29.453Z,54.50
2017-09-08T17:16:56.505Z,54.50
2017-09-08T17:19:22.810Z,56.90
2017-09-08T17:21:49.094Z,55.60
2017-09-08T17:24:15.442Z,56.70
2017-09-08T17:26:41.745Z,56.60
2017-09-08T17:29:08.041Z,57.00
2017-09-08T17:31:34.310Z,57.70
2017-09-08T17:34:00.628Z,56.20
2017-09-08T17:36:26.969Z,57.40
2017-09-08T17:38:53.281Z,58.10
2017-09-08T17:41:19.556Z,59.50
2017-09-08T17:43:45.843Z,59.40
2017-09-08T17:46:12.124Z,59.50
2017-09-08T17:48:38.438Z,60.80
2017-09-08T17:51:05.133Z,59.80
2017-09-08T17:53:31.719Z,59.80
2017-09-08T17:55:58.026Z,60.60
2017-09-08T17:58:24.371Z,61.60
2017-09-08T18:00:50.689Z,61.50
2017-09-08T18:03:16.991Z,62.20
2017-09-08T18:05:43.349Z,62.00
2017-09-08T18:08:10.472Z,62.30
2017-09-08T18:10:37.070Z,62.80
2017-09-08T18:13:03.351Z,62.00
2017-09-08T18:15:30.430Z,63.30
2017-09-08T18:17:56.750Z,64.00
2017-09-08T18:20:23.039Z,64.60
2017-09-08T18:22:49.359Z,64.40
2017-09-08T18:25:15.688Z,65.40
2017-09-08T18:27:41.988Z,65.20
2017-09-08T18:30:09.334Z,65.40
2017-09-08T18:32:35.694Z,66.10
2017-09-08T18:35:02.056Z,66.30
2017-09-08T18:37:28.361Z,66.40
2017-09-08T18:39:54.730Z,66.60
2017-09-08T18:42:21.030Z,66.90
2017-09-08T18:44:47.333Z,67.50
2017-09-08T18:47:13.617Z,68.20
2017-09-08T18:49:39.901Z,68.40
2017-09-08T18:52:06.198Z,68.50
2017-09-08T18:54:32.890Z,68.30
2017-09-08T18:56:59.194Z,68.30
2017-09-08T18:59:26.470Z,69.20
2017-09-08T19:01:53.534Z,69.30
2017-09-08T19:04:20.818Z,69.50
2017-09-08T19:06:47.491Z,69.90
2017-09-08T19:09:13.758Z,69.90
2017-09-08T19:11:40.109Z,70.20
2017-09-08T19:14:06.403Z,70.10
2017-09-08T19:16:32.738Z,70.50
2017-09-08T19:18:59.045Z,70.80
2017-09-08T19:21:25.400Z,71.10
2017-09-08T19:23:51.678Z,71.80
2017-09-08T19:26:17.993Z,71.90
2017-09-08T19:28:44.649Z,71.70
2017-09-08T19:31:11.419Z,71.70
2017-09-08T19:33:38.666Z,71.60
2017-09-08T19:36:05.584Z,71.70
2017-09-08T19:38:31.895Z,71.80
2017-09-08T19:40:58.182Z,72.60
2017-09-08T19:43:25.211Z,72.10
2017-09-08T19:45:51.487Z,72.30
2017-09-08T19:48:17.892Z,72.70
2017-09-08T19:50:44.212Z,72.50
2017-09-08T19:53:10.585Z,72.60
2017-09-08T19:55:37.347Z,72.90
2017-09-08T19:58:04.651Z,72.90
2017-09-08T20:00:30.978Z,73.00
2017-09-08T20:02:57.275Z,73.10
2017-09-08T20:05:23.654Z,73.00
2017-09-08T20:07:49.978Z,73.50
2017-09-08T20:10:17.049Z,73.70
2017-09-08T20:12:43.350Z,73.80
2017-09-08T20:15:09.665Z,74.20
2017-09-08T20:17:35.957Z,74.30
2017-09-08T20:20:02.285Z,74.00
2017-09-08T20:22:28.578Z,74.40
2017-09-08T20:24:54.878Z,74.70
2017-09-08T20:27:21.215Z,75.00
2017-09-08T20:29:47.586Z,75.40
2017-09-08T20:32:13.906Z,75.30
2017-09-08T20:34:40.181Z,75.20
2017-09-08T20:37:07.381Z,75.20
2017-09-08T20:39:33.662Z,75.50
2017-09-08T20:42:00.682Z,75.20
2017-09-08T20:44:27.402Z,75.00
2017-09-08T20:46:53.705Z,75.00
2017-09-08T20:49:20.012Z,75.10
2017-09-08T20:51:46.304Z,74.80
2017-09-08T20:54:13.034Z,74.90
2017-09-08T20:56:39.345Z,74.90
2017-09-08T20:59:05.696Z,74.90
2017-09-08T21:01:31.972Z,75.20
2017-09-08T21:03:58.290Z,75.70
2017-09-08T21:06:24.625Z,75.70
2017-09-08T21:08:51.002Z,75.80
2017-09-08T21:11:17.338Z,76.10
2017-09-08T21:13:43.992Z,76.40
2017-09-08T21:16:10.293Z,76.30
2017-09-08T21:18:36.589Z,75.80
2017-09-08T21:21:02.888Z,76.70
2017-09-08T21:23:29.187Z,76.10
2017-09-08T21:25:55.488Z,76.10
2017-09-08T21:28:21.805Z,75.90
2017-09-08T21:30:48.170Z,75.80
2017-09-08T21:33:14.453Z,76.10
2017-09-08T21:35:40.747Z,75.80
2017-09-08T21:38:07.062Z,75.50
2017-09-08T21:40:34.009Z,75.60
2017-09-08T21:43:01.224Z,76.00
2017-09-08T21:45:27.489Z,76.50
2017-09-08T21:47:54.134Z,76.20
2017-09-08T21:50:20.437Z,76.10
2017-09-08T21:52:46.829Z,76.20
2017-09-08T21:55:13.829Z,76.10
2017-09-08T21:57:40.143Z,76.10
2017-09-08T22:00:06.450Z,76.30
2017-09-08T22:02:32.764Z,76.50
2017-09-08T22:04:59.081Z,76.50
2017-09-08T22:07:25.381Z,77.10
2017-09-08T22:09:51.670Z,76.90
2017-09-08T22:12:17.984Z,76.80
2017-09-08T22:14:44.674Z,77.20
2017-09-08T22:17:10.971Z,77.20
2017-09-08T22:19:37.265Z,77.20
2017-09-08T22:22:03.552Z,76.80
2017-09-08T22:24:29.849Z,76.70
2017-09-08T22:26:56.138Z,76.60
2017-09-08T22:29:22.437Z,76.50
2017-09-08T22:31:48.778Z,76.40
2017-09-08T22:34:15.037Z,76.50
2017-09-08T22:36:41.316Z,76.50
2017-09-08T22:39:07.616Z,76.90
2017-09-08T22:41:33.917Z,77.10
2017-09-08T22:44:00.189Z,76.90
2017-09-08T22:46:26.490Z,77.30
2017-09-08T22:48:53.161Z,78.20
2017-09-08T22:51:19.451Z,78.30
2017-09-08T22:53:45.721Z,78.30
2017-09-08T22:56:11.992Z,78.10
2017-09-08T22:58:38.298Z,78.60
2017-09-08T23:01:04.566Z,78.30
2017-09-08T23:03:30.830Z,78.50
2017-09-08T23:05:57.456Z,78.00
2017-09-08T23:08:23.724Z,78.00
2017-09-08T23:10:49.985Z,77.80
2017-09-08T23:13:16.260Z,77.80
2017-09-08T23:15:42.541Z,77.50
2017-09-08T23:18:08.839Z,77.50
2017-09-08T23:20:35.176Z,77.40
2017-09-08T23:23:01.467Z,77.60
2017-09-08T23:25:27.729Z,77.70
2017-09-08T23:27:54.018Z,77.70
2017-09-08T23:30:20.327Z,78.10
2017-09-08T23:32:46.618Z,78.10
2017-09-08T23:35:12.901Z,78.50
2017-09-08T23:37:39.191Z,78.50
2017-09-08T23:40:05.472Z,78.50
2017-09-08T23:42:31.765Z,78.40
2017-09-08T23:44:58.032Z,78.30
2017-09-08T23:47:24.301Z,78.20
2017-09-08T23:49:50.568Z,77.90
2017-09-08T23:52:16.824Z,77.60
2017-09-08T23:54:43.118Z,77.70
2017-09-08T23:57:09.440Z,77.60
2017-09-08T23:59:35.696Z,77.80
